TimeEDT,TemperatureF,Dew PointF,Humidity,Sea Level PressureIn,VisibilityMPH,Wind Direction,Wind SpeedMPH,Gust SpeedMPH,PrecipitationIn,Events,Conditions,WindDirDegrees,DateUTC
12:56 AM,63.0,54.0,72,30.13,10.0,South,5.8,-,N/A,,Clear,190,2013-04-08 04:56:00
1:56 AM,62.1,54.0,75,30.13,10.0,Calm,Calm,-,N/A,,Partly Cloudy,0,2013-04-08 05:56:00
2:56 AM,60.1,54.0,80,30.12,10.0,SW,4.6,-,N/A,,Partly Cloudy,230,2013-04-08 06:56:00
3:56 AM,59.0,54.0,83,30.12,10.0,SW,4.6,-,N/A,,Partly Cloudy,230,2013-04-08 07:56:00
4:56 AM,57.9,54.0,87,30.12,10.0,Calm,Calm,-,N/A,,Clear,0,2013-04-08 08:56:00
5:56 AM,53.1,50.0,89,30.12,9.0,West,3.5,-,N/A,,Clear,270,2013-04-08 09:56:00
6:56 AM,55.9,52.0,87,30.15,6.0,Calm,Calm,-,N/A,,Partly Cloudy,0,2013-04-08 10:56:00
7:56 AM,57.9,54.0,87,30.17,6.0,Calm,Calm,-,N/A,,Scattered Clouds,0,2013-04-08 11:56:00
8:56 AM,61.0,55.0,81,30.17,8.0,Calm,Calm,-,N/A,,Mostly Cloudy,0,2013-04-08 12:56:00
9:56 AM,69.1,55.9,63,30.18,10.0,Variable,3.5,-,N/A,,Mostly Cloudy,0,2013-04-08 13:56:00
10:56 AM,73.0,54.0,51,30.19,10.0,WSW,8.1,-,N/A,,Mostly Cloudy,240,2013-04-08 14:56:00
11:56 AM,75.9,51.1,42,30.17,10.0,South,6.9,16.1,N/A,,Partly Cloudy,190,2013-04-08 15:56:00
12:56 PM,80.1,53.1,39,30.15,10.0,South,12.7,-,N/A,,Scattered Clouds,180,2013-04-08 16:56:00
1:56 PM,79.0,48.9,35,30.13,10.0,SSW,4.6,-,N/A,,Scattered Clouds,210,2013-04-08 17:56:00
2:56 PM,82.0,48.9,31,30.11,10.0,SSW,8.1,-,N/A,,Scattered Clouds,200,2013-04-08 18:56:00
3:56 PM,82.9,48.9,31,30.09,10.0,SSW,10.4,-,N/A,,Scattered Clouds,200,2013-04-08 19:56:00
4:56 PM,82.9,50.0,32,30.07,10.0,SW,13.8,19.6,N/A,,Scattered Clouds,220,2013-04-08 20:56:00
5:56 PM,82.9,48.9,31,30.07,10.0,SSW,13.8,-,N/A,,Scattered Clouds,200,2013-04-08 21:56:00
6:56 PM,81.0,50.0,34,30.07,10.0,South,8.1,-,N/A,,Scattered Clouds,190,2013-04-08 22:56:00
7:56 PM,75.9,51.1,42,30.08,10.0,SSW,3.5,-,N/A,,Scattered Clouds,200,2013-04-08 23:56:00
8:56 PM,73.9,51.1,45,30.10,10.0,South,3.5,-,N/A,,Scattered Clouds,180,2013-04-09 00:56:00
9:56 PM,69.1,54.0,58,30.12,10.0,South,5.8,-,N/A,,Clear,190,2013-04-09 01:56:00
10:56 PM,70.0,53.1,55,30.13,10.0,South,8.1,-,N/A,,Clear,190,2013-04-09 02:56:00
11:56 PM,68.0,53.1,59,30.14,10.0,SSW,3.5,-,N/A,,Clear,210,2013-04-09 03:56:00